Time;durP1;ratioP1;P1;durP2;ratioP2;P2;SDS_P1;SDS_P2;PMS_P1;PMS_P2;Temp;Humidity;BMP_temperature;BMP_pressure;BME280_temperature;BME280_humidity;BME280_pressure;Samples;Min_cycle;Max_cycle;Signal;HPM_P1;HPM_P2
2021/08/11 00:00:30;;;;;;;9.70;5.53;;;18.70;79.80;;;;;;4915457;29;20492;-48
2021/08/11 00:02:57;;;;;;;4.90;4.00;;;18.70;79.70;;;;;;4930619;29;20467;-48
2021/08/11 00:05:25;;;;;;;7.40;4.27;;;18.70;79.70;;;;;;4935021;29;20534;-48
2021/08/11 00:07:52;;;;;;;5.10;4.40;;;18.60;79.80;;;;;;4932276;29;20459;-48
2021/08/11 00:10:19;;;;;;;5.37;4.00;;;18.60;79.80;;;;;;4932611;29;20467;-48
2021/08/11 00:12:45;;;;;;;4.27;3.67;;;18.60;79.70;;;;;;4920856;29;20468;-48
2021/08/11 00:15:13;;;;;;;5.23;3.90;;;18.60;79.80;;;;;;4930251;29;20496;-48
2021/08/11 00:17:40;;;;;;;7.07;4.53;;;18.60;79.90;;;;;;4917252;29;20995;-48
2021/08/11 00:20:08;;;;;;;8.17;4.50;;;18.60;79.80;;;;;;4931813;29;20503;-48
2021/08/11 00:22:35;;;;;;;5.90;4.33;;;18.50;79.80;;;;;;4930448;29;20462;-48
2021/08/11 00:25:03;;;;;;;5.20;4.70;;;18.50;80.00;;;;;;4930343;29;20466;-48
2021/08/11 00:27:30;;;;;;;6.07;4.67;;;18.50;80.10;;;;;;4917036;29;20460;-48
2021/08/11 00:29:56;;;;;;;6.17;4.83;;;18.40;80.10;;;;;;4926596;29;20460;-48
2021/08/11 00:32:23;;;;;;;5.20;4.50;;;18.40;80.20;;;;;;4929414;29;20456;-48
2021/08/11 00:34:50;;;;;;;8.93;4.63;;;18.40;80.30;;;;;;4933356;29;20459;-48
2021/08/11 00:37:17;;;;;;;5.30;4.37;;;18.40;80.20;;;;;;4931576;29;20474;-48
2021/08/11 00:39:45;;;;;;;7.77;4.97;;;18.40;80.30;;;;;;4930125;29;20475;-48
2021/08/11 00:42:12;;;;;;;8.07;5.67;;;18.30;80.50;;;;;;4931283;29;20491;-48
2021/08/11 00:44:38;;;;;;;5.50;4.07;;;18.30;80.50;;;;;;4930808;29;20958;-48
2021/08/11 00:47:06;;;;;;;5.23;4.43;;;18.30;80.50;;;;;;4926411;29;20822;-48
2021/08/11 00:49:33;;;;;;;5.53;4.57;;;18.30;80.60;;;;;;4931657;29;20829;-48
2021/08/11 00:52:00;;;;;;;6.47;4.47;;;18.30;80.60;;;;;;4929149;29;20985;-48
2021/08/11 00:54:27;;;;;;;6.20;5.03;;;18.30;80.60;;;;;;4927482;29;20468;-48
2021/08/11 00:56:55;;;;;;;5.93;4.87;;;18.30;80.60;;;;;;4929361;29;20461;-48
2021/08/11 00:59:25;;;;;;;4.63;3.93;;;18.20;80.70;;;;;;4923100;29;20468;-48
2021/08/11 01:01:53;;;;;;;4.93;3.83;;;18.20;80.50;;;;;;4927562;29;21186;-48
2021/08/11 01:04:21;;;;;;;7.57;4.60;;;18.20;80.20;;;;;;4898183;29;20460;-48
2021/08/11 01:06:48;;;;;;;6.70;4.17;;;18.20;80.20;;;;;;4916091;29;20475;-48
2021/08/11 01:09:17;;;;;;;6.80;3.93;;;18.20;80.10;;;;;;4903540;29;20958;-48
2021/08/11 01:11:45;;;;;;;8.70;4.77;;;18.10;80.10;;;;;;4929426;29;20475;-48
2021/08/11 01:14:13;;;;;;;6.30;4.93;;;18.10;80.20;;;;;;4925325;29;20499;-48
2021/08/11 01:16:41;;;;;;;7.07;4.90;;;18.00;80.40;;;;;;4912027;29;20468;-48
2021/08/11 01:19:08;;;;;;;5.57;4.50;;;18.00;80.40;;;;;;4932055;29;20460;-48
2021/08/11 01:21:42;;;;;;;6.20;4.40;;;18.00;80.60;;;;;;4929590;29;20496;-48
2021/08/11 01:24:27;;;;;;;6.27;4.90;;;17.90;80.70;;;;;;4929618;29;20493;-48
2021/08/11 01:27:18;;;;;;;5.20;4.03;;;18.00;80.80;;;;;;4929420;29;20988;-48
2021/08/11 01:30:00;;;;;;;9.17;4.50;;;17.90;80.90;;;;;;4914658;29;20468;-48
2021/08/11 01:32:58;;;;;;;7.50;4.70;;;17.90;81.00;;;;;;4927019;29;20475;-48
2021/08/11 01:35:39;;;;;;;7.10;4.37;;;17.90;81.10;;;;;;4930285;29;20464;-48
2021/08/11 01:38:13;;;;;;;6.90;4.67;;;17.80;81.20;;;;;;4914932;29;20463;-48
2021/08/11 01:40:47;;;;;;;8.50;5.07;;;17.80;81.20;;;;;;4912697;29;20611;-48
2021/08/11 01:43:15;;;;;;;6.37;4.80;;;17.80;81.20;;;;;;4911770;29;20472;-48
2021/08/11 01:45:43;;;;;;;5.73;4.60;;;17.70;81.40;;;;;;4927649;29;20456;-48
2021/08/11 01:48:15;;;;;;;8.13;4.50;;;17.70;81.50;;;;;;4930697;29;20467;-48
2021/08/11 01:50:48;;;;;;;6.27;4.70;;;17.70;81.50;;;;;;4924192;29;20835;-48
2021/08/11 01:53:21;;;;;;;5.73;4.33;;;17.70;81.50;;;;;;4928286;29;20464;-48
2021/08/11 01:55:53;;;;;;;6.40;5.23;;;17.70;81.50;;;;;;4918918;29;20464;-48
2021/08/11 01:58:24;;;;;;;11.30;4.90;;;17.70;81.60;;;;;;4928058;29;20478;-48
2021/08/11 02:00:53;;;;;;;5.60;4.47;;;17.60;81.70;;;;;;4925948;29;20506;-48
2021/08/11 02:03:22;;;;;;;4.73;3.90;;;17.60;81.70;;;;;;4928325;29;20811;-48
2021/08/11 02:05:53;;;;;;;5.13;4.40;;;17.60;81.70;;;;;;4928490;29;20472;-48
2021/08/11 02:08:21;;;;;;;5.30;3.90;;;17.50;81.70;;;;;;4929964;29;20460;-48
2021/08/11 02:10:52;;;;;;;5.50;3.90;;;17.50;81.70;;;;;;4932703;29;20467;-48
2021/08/11 02:13:19;;;;;;;8.93;5.10;;;17.50;81.60;;;;;;4914626;29;20460;-48
2021/08/11 02:15:49;;;;;;;7.73;5.10;;;17.50;81.50;;;;;;4928290;29;20463;-48
2021/08/11 02:18:17;;;;;;;4.90;3.63;;;17.50;81.40;;;;;;4930722;29;20472;-48
2021/08/11 02:20:44;;;;;;;5.30;4.30;;;17.50;81.30;;;;;;4932301;29;20980;-48
2021/08/11 02:23:11;;;;;;;7.70;4.70;;;17.50;81.30;;;;;;4930211;29;20467;-48
2021/08/11 02:25:54;;;;;;;5.70;3.83;;;17.40;81.10;;;;;;4926459;29;20463;-48
2021/08/11 02:28:49;;;;;;;8.20;6.10;;;17.40;81.00;;;;;;4929354;29;20466;-48
2021/08/11 02:31:29;;;;;;;6.30;4.20;;;17.40;81.10;;;;;;4927095;29;20456;-48
2021/08/11 02:34:13;;;;;;;7.47;4.10;;;17.30;81.00;;;;;;4927199;29;20897;-48
2021/08/11 02:36:59;;;;;;;4.83;3.93;;;17.30;81.00;;;;;;4926495;29;20468;-48
2021/08/11 02:39:37;;;;;;;6.97;4.00;;;17.30;81.20;;;;;;4928723;29;20855;-48
2021/08/11 02:42:11;;;;;;;6.23;4.07;;;17.30;81.20;;;;;;4926227;29;20496;-48
2021/08/11 02:44:43;;;;;;;6.77;4.90;;;17.30;81.20;;;;;;4911482;29;20568;-48
2021/08/11 02:47:10;;;;;;;7.93;4.80;;;17.30;81.30;;;;;;4896128;29;20459;-49
2021/08/11 02:49:38;;;;;;;6.13;4.30;;;17.30;81.30;;;;;;4929965;29;20510;-49
2021/08/11 02:52:05;;;;;;;5.00;4.50;;;17.30;81.40;;;;;;4927498;29;20468;-48
2021/08/11 02:54:33;;;;;;;5.97;4.43;;;17.30;81.70;;;;;;4928220;29;20493;-48
2021/08/11 02:57:02;;;;;;;6.30;4.83;;;17.20;81.80;;;;;;4928958;29;20475;-48
2021/08/11 02:59:29;;;;;;;4.90;4.40;;;17.20;81.80;;;;;;4908916;29;20510;-48
2021/08/11 03:01:57;;;;;;;6.30;4.90;;;17.20;81.90;;;;;;4909795;29;20492;-48
2021/08/11 03:04:24;;;;;;;6.10;4.50;;;17.20;81.90;;;;;;4928783;29;21070;-48
2021/08/11 03:06:51;;;;;;;8.13;5.13;;;17.10;82.00;;;;;;4916402;29;20474;-48
2021/08/11 03:09:21;;;;;;;6.80;4.43;;;17.10;82.00;;;;;;4924522;29;20464;-48
2021/08/11 03:11:48;;;;;;;8.70;5.20;;;17.10;82.10;;;;;;4931837;29;20472;-48
2021/08/11 03:14:15;;;;;;;6.00;4.20;;;17.10;82.30;;;;;;4927390;29;20836;-48
2021/08/11 03:16:42;;;;;;;5.20;3.90;;;17.10;82.30;;;;;;4914259;29;20518;-48
2021/08/11 03:19:09;;;;;;;6.90;4.20;;;17.10;82.30;;;;;;4929658;29;20455;-48
2021/08/11 03:21:37;;;;;;;6.40;4.60;;;17.00;82.10;;;;;;4928473;29;20495;-48
2021/08/11 03:24:05;;;;;;;4.50;4.00;;;17.00;82.00;;;;;;4927482;29;20554;-48
2021/08/11 03:26:32;;;;;;;5.10;4.23;;;17.00;81.90;;;;;;4929833;29;20680;-48
2021/08/11 03:29:00;;;;;;;6.60;4.73;;;17.00;81.90;;;;;;4925611;29;20456;-48
2021/08/11 03:31:28;;;;;;;7.03;4.13;;;16.90;82.10;;;;;;4910368;29;20468;-48
2021/08/11 03:33:56;;;;;;;5.63;4.80;;;16.90;82.30;;;;;;4929911;29;20460;-48
2021/08/11 03:36:23;;;;;;;5.50;4.70;;;16.90;82.50;;;;;;4927457;29;20841;-48
2021/08/11 03:38:49;;;;;;;6.97;4.70;;;16.90;82.70;;;;;;4930346;29;20474;-48
2021/08/11 03:41:16;;;;;;;5.93;4.60;;;16.90;82.90;;;;;;4928270;29;20487;-48
2021/08/11 03:43:43;;;;;;;8.90;5.80;;;16.90;82.90;;;;;;4927291;29;20460;-47
2021/08/11 03:46:10;;;;;;;7.33;5.20;;;16.90;83.00;;;;;;4915145;29;20487;-48
2021/08/11 03:48:37;;;;;;;8.67;5.30;;;16.90;83.00;;;;;;4930545;29;21021;-48
2021/08/11 03:51:03;;;;;;;6.43;5.20;;;16.80;83.20;;;;;;4935898;29;20464;-47
2021/08/11 03:53:30;;;;;;;5.60;4.47;;;16.90;83.20;;;;;;4928729;29;20467;-47
2021/08/11 03:55:57;;;;;;;10.50;6.33;;;16.80;83.30;;;;;;4930553;29;20569;-47
2021/08/11 03:58:23;;;;;;;5.33;4.47;;;16.80;83.30;;;;;;4932125;29;20993;-47
2021/08/11 04:00:50;;;;;;;8.23;5.47;;;16.80;83.50;;;;;;4926683;29;20912;-47
2021/08/11 04:03:17;;;;;;;8.67;5.43;;;16.80;83.60;;;;;;4931149;29;20467;-47
2021/08/11 04:05:44;;;;;;;6.40;5.13;;;16.80;83.60;;;;;;4901620;29;20468;-47
2021/08/11 04:08:11;;;;;;;5.93;4.87;;;16.80;83.60;;;;;;4914673;29;20479;-47
2021/08/11 04:10:38;;;;;;;8.40;5.67;;;16.80;83.60;;;;;;4931290;29;20471;-47
2021/08/11 04:13:06;;;;;;;6.40;4.67;;;16.80;83.60;;;;;;4931069;29;20961;-47
2021/08/11 04:15:32;;;;;;;7.50;5.23;;;16.80;83.60;;;;;;4927485;29;20468;-47
2021/08/11 04:17:59;;;;;;;7.23;5.20;;;16.80;83.70;;;;;;4925551;29;21017;-47
2021/08/11 04:20:26;;;;;;;7.20;5.00;;;16.80;83.70;;;;;;4899725;29;20464;-47
2021/08/11 04:22:53;;;;;;;6.00;4.83;;;16.80;83.80;;;;;;4930240;29;21001;-47
2021/08/11 04:25:20;;;;;;;6.00;5.40;;;16.80;83.90;;;;;;4931615;29;20974;-47
2021/08/11 04:27:47;;;;;;;7.40;5.90;;;16.80;84.00;;;;;;4933701;29;20471;-47
2021/08/11 04:30:13;;;;;;;7.80;6.13;;;16.80;84.10;;;;;;4928031;29;24600;-47
2021/08/11 04:32:40;;;;;;;8.93;5.50;;;16.80;84.20;;;;;;4926325;29;20472;-48
2021/08/11 04:35:08;;;;;;;9.70;5.47;;;16.80;84.30;;;;;;4921343;29;20718;-48
2021/08/11 04:37:39;;;;;;;6.37;5.03;;;16.80;84.40;;;;;;4930569;29;20464;-48
2021/08/11 04:40:08;;;;;;;7.47;5.60;;;16.80;84.50;;;;;;4925490;29;20471;-47
2021/08/11 04:42:34;;;;;;;8.67;5.17;;;16.80;84.40;;;;;;4914747;29;20496;-47
2021/08/11 04:45:02;;;;;;;5.83;5.03;;;16.80;84.40;;;;;;4931076;29;20469;-47
2021/08/11 04:47:28;;;;;;;5.60;4.60;;;16.80;84.40;;;;;;4930288;29;20864;-47
2021/08/11 04:49:55;;;;;;;10.00;5.50;;;16.90;84.40;;;;;;4915971;29;20958;-47
2021/08/11 04:52:22;;;;;;;9.53;5.77;;;16.80;84.30;;;;;;4914449;29;20463;-47
2021/08/11 04:54:48;;;;;;;5.80;4.87;;;16.90;84.30;;;;;;4927573;29;20475;-48
2021/08/11 04:57:15;;;;;;;7.97;4.87;;;16.80;84.30;;;;;;4930029;29;20464;-47
2021/08/11 04:59:42;;;;;;;6.67;5.40;;;16.90;84.30;;;;;;4913000;29;20495;-48
2021/08/11 05:02:09;;;;;;;6.80;5.40;;;16.90;84.40;;;;;;4927739;29;20488;-47
2021/08/11 05:04:36;;;;;;;9.13;5.47;;;16.90;84.50;;;;;;4930512;29;20499;-47
2021/08/11 05:07:05;;;;;;;9.53;5.80;;;16.90;84.70;;;;;;4913714;29;20487;-47
2021/08/11 05:09:33;;;;;;;10.33;6.50;;;17.00;84.90;;;;;;4916902;29;20551;-47
2021/08/11 05:12:02;;;;;;;7.43;6.00;;;17.10;85.00;;;;;;4917739;29;20471;-47
2021/08/11 05:14:30;;;;;;;13.10;6.20;;;17.10;84.90;;;;;;4914763;29;20474;-47
2021/08/11 05:16:59;;;;;;;8.27;6.03;;;17.20;85.00;;;;;;4930212;29;20872;-47
2021/08/11 05:19:26;;;;;;;5.03;4.30;;;17.20;85.00;;;;;;4930709;29;20558;-47
2021/08/11 05:21:52;;;;;;;11.30;7.20;;;17.20;85.10;;;;;;4926933;29;20491;-47
2021/08/11 05:24:19;;;;;;;7.80;5.77;;;17.20;85.00;;;;;;4927111;29;20471;-47
2021/08/11 05:26:46;;;;;;;11.27;6.23;;;17.20;85.00;;;;;;4927182;29;20467;-47
2021/08/11 05:29:20;;;;;;;5.60;4.63;;;17.30;84.90;;;;;;4913124;29;20470;-47
2021/08/11 05:31:47;;;;;;;7.47;5.40;;;17.30;84.90;;;;;;4929326;29;20555;-47
2021/08/11 05:34:14;;;;;;;9.30;5.70;;;17.40;84.70;;;;;;4932864;29;20448;-47
2021/08/11 05:36:41;;;;;;;8.53;5.33;;;17.40;84.70;;;;;;4932351;29;20475;-48
2021/08/11 05:39:10;;;;;;;8.07;5.70;;;17.50;84.90;;;;;;4913320;29;20468;-48
2021/08/11 05:41:37;;;;;;;7.87;5.80;;;17.50;84.80;;;;;;4933018;29;20496;-47
2021/08/11 05:44:07;;;;;;;10.20;6.63;;;17.60;84.70;;;;;;4931559;29;20459;-47
2021/08/11 05:46:34;;;;;;;11.60;5.77;;;17.70;84.70;;;;;;4928461;29;20471;-48
2021/08/11 05:49:05;;;;;;;7.10;5.47;;;17.70;84.70;;;;;;4930308;29;20555;-48
2021/08/11 05:51:34;;;;;;;9.53;5.53;;;17.80;84.50;;;;;;4930041;29;20456;-48
2021/08/11 05:54:02;;;;;;;6.87;5.20;;;17.90;84.10;;;;;;4925207;29;20498;-48
2021/08/11 05:56:29;;;;;;;7.83;6.00;;;18.00;84.00;;;;;;4929655;29;20466;-47
2021/08/11 05:58:56;;;;;;;5.27;4.77;;;18.00;83.80;;;;;;4911884;29;20989;-48
2021/08/11 06:01:23;;;;;;;8.13;5.00;;;18.10;83.70;;;;;;4930921;29;20476;-48
2021/08/11 06:03:55;;;;;;;8.03;5.57;;;18.10;83.60;;;;;;4930915;29;20456;-48
2021/08/11 06:06:27;;;;;;;7.07;5.50;;;18.10;83.70;;;;;;4930374;29;20602;-48
2021/08/11 06:08:54;;;;;;;6.37;5.63;;;18.20;83.80;;;;;;4928690;29;20470;-48
2021/08/11 06:11:22;;;;;;;6.83;5.53;;;18.20;83.70;;;;;;4932278;29;20878;-47
2021/08/11 06:13:48;;;;;;;5.77;5.17;;;18.30;83.80;;;;;;4913221;29;20507;-48
2021/08/11 06:16:15;;;;;;;8.97;5.90;;;18.30;83.60;;;;;;4930611;29;20456;-48
2021/08/11 06:18:42;;;;;;;7.83;5.07;;;18.40;83.60;;;;;;4930437;29;20472;-48
2021/08/11 06:21:09;;;;;;;7.47;5.37;;;18.50;83.30;;;;;;4923020;29;20953;-48
2021/08/11 06:23:35;;;;;;;7.10;6.27;;;18.50;83.10;;;;;;4923741;29;20499;-48
2021/08/11 06:26:02;;;;;;;6.83;4.93;;;18.60;83.00;;;;;;4910974;29;20456;-48
2021/08/11 06:28:29;;;;;;;6.80;4.87;;;18.70;83.00;;;;;;4927772;29;20464;-48
2021/08/11 06:30:56;;;;;;;9.70;4.80;;;18.80;82.90;;;;;;4931235;29;20464;-47
2021/08/11 06:33:24;;;;;;;5.30;4.80;;;18.80;82.70;;;;;;4921867;29;20471;-48
2021/08/11 06:35:50;;;;;;;7.67;4.80;;;19.00;82.30;;;;;;4927573;29;20468;-48
2021/08/11 06:38:17;;;;;;;9.00;5.50;;;19.10;82.10;;;;;;4925981;29;20829;-48
2021/08/11 06:40:44;;;;;;;7.43;5.07;;;19.20;81.70;;;;;;4928337;29;20474;-48
2021/08/11 06:43:11;;;;;;;5.77;4.40;;;19.30;81.50;;;;;;4926575;29;20503;-48
2021/08/11 06:45:37;;;;;;;5.37;4.43;;;19.30;81.30;;;;;;4928859;29;20474;-48
2021/08/11 06:48:04;;;;;;;6.60;5.50;;;19.50;80.90;;;;;;4929228;29;20470;-48
2021/08/11 06:50:31;;;;;;;8.50;5.43;;;19.60;80.70;;;;;;4924523;29;21033;-48
2021/08/11 06:52:58;;;;;;;6.10;4.63;;;19.60;80.60;;;;;;4912115;29;20891;-48
2021/08/11 06:55:27;;;;;;;5.43;4.40;;;19.70;80.60;;;;;;4924108;29;20475;-48
2021/08/11 06:57:54;;;;;;;5.67;4.50;;;19.80;80.40;;;;;;4928894;29;20993;-48
2021/08/11 07:00:21;;;;;;;5.40;4.43;;;19.90;79.90;;;;;;4930451;29;20498;-48
2021/08/11 07:02:50;;;;;;;6.27;4.27;;;20.00;79.60;;;;;;4929965;29;20959;-48
2021/08/11 07:05:18;;;;;;;5.97;4.20;;;20.10;79.50;;;;;;4931313;29;20523;-48
2021/08/11 07:07:45;;;;;;;5.67;3.70;;;20.20;79.10;;;;;;4916499;29;20806;-48
2021/08/11 07:10:14;;;;;;;4.70;4.20;;;20.40;78.80;;;;;;4929076;29;20946;-48
2021/08/11 07:12:41;;;;;;;4.50;3.90;;;20.50;78.40;;;;;;4916807;29;20483;-47
2021/08/11 07:15:10;;;;;;;8.40;4.27;;;20.70;78.00;;;;;;4931125;29;20833;-48
2021/08/11 07:17:49;;;;;;;4.83;4.00;;;20.80;75.90;;;;;;4928056;29;20916;-48
2021/08/11 07:20:16;;;;;;;7.20;4.30;;;21.00;75.50;;;;;;4922119;29;20547;-47
2021/08/11 07:22:43;;;;;;;8.60;3.90;;;21.10;75.40;;;;;;4928477;29;20502;-48
2021/08/11 07:25:10;;;;;;;9.20;4.50;;;21.20;75.10;;;;;;4917573;29;20535;-48
2021/08/11 07:27:37;;;;;;;9.77;4.10;;;21.30;75.20;;;;;;4929959;29;20943;-48
2021/08/11 07:30:07;;;;;;;8.10;4.37;;;21.40;75.10;;;;;;4932278;29;20475;-48
2021/08/11 07:32:36;;;;;;;10.60;5.20;;;21.60;73.90;;;;;;4923630;29;20459;-47
2021/08/11 07:35:04;;;;;;;6.00;4.13;;;21.70;73.50;;;;;;4913336;29;20471;-47
2021/08/11 07:37:31;;;;;;;7.03;4.00;;;21.90;73.10;;;;;;4932174;29;20567;-48
2021/08/11 07:39:58;;;;;;;4.60;3.90;;;22.10;72.80;;;;;;4930418;29;20469;-48
2021/08/11 07:42:25;;;;;;;6.50;4.63;;;22.20;72.20;;;;;;4918201;29;20486;-48
2021/08/11 07:44:51;;;;;;;6.03;4.73;;;22.40;71.80;;;;;;4934116;29;20825;-48
2021/08/11 07:47:18;;;;;;;5.70;3.87;;;22.50;71.20;;;;;;4931444;29;20979;-48
2021/08/11 07:49:45;;;;;;;4.07;3.67;;;22.70;70.70;;;;;;4929913;29;21097;-48
2021/08/11 07:52:12;;;;;;;7.47;3.93;;;22.90;70.30;;;;;;4919544;29;20836;-48
2021/08/11 07:54:39;;;;;;;4.17;3.70;;;23.00;70.10;;;;;;4930177;29;20458;-47
2021/08/11 07:57:06;;;;;;;5.10;3.47;;;23.20;69.50;;;;;;4927306;29;20976;-47
2021/08/11 07:59:33;;;;;;;7.87;4.10;;;23.30;68.90;;;;;;4931501;29;20554;-48
2021/08/11 08:02:00;;;;;;;4.50;3.60;;;23.50;67.90;;;;;;4929074;29;20464;-47
2021/08/11 08:04:27;;;;;;;5.10;3.90;;;23.60;67.80;;;;;;4930908;29;20456;-47
2021/08/11 08:06:53;;;;;;;5.83;3.90;;;23.70;67.40;;;;;;4922204;29;20468;-47
2021/08/11 08:09:20;;;;;;;5.60;3.80;;;23.70;67.50;;;;;;4918482;29;20471;-47
2021/08/11 08:11:48;;;;;;;6.03;3.93;;;23.70;67.20;;;;;;4929512;29;20456;-47
2021/08/11 08:14:15;;;;;;;7.23;4.27;;;23.90;67.10;;;;;;4933559;29;21011;-47
2021/08/11 08:16:42;;;;;;;6.30;3.70;;;24.00;67.20;;;;;;4917528;29;20532;-47
2021/08/11 08:19:09;;;;;;;5.03;4.00;;;24.10;66.60;;;;;;4932574;29;20499;-48
2021/08/11 08:21:36;;;;;;;5.27;3.97;;;24.30;66.10;;;;;;4927949;29;20514;-48
2021/08/11 08:24:03;;;;;;;6.30;3.73;;;24.50;65.30;;;;;;4930288;29;20501;-48
2021/08/11 08:26:30;;;;;;;4.83;3.60;;;24.70;64.90;;;;;;4929693;29;20475;-48
2021/08/11 08:28:57;;;;;;;6.10;4.00;;;24.80;64.20;;;;;;4928964;29;20448;-48
2021/08/11 08:31:23;;;;;;;9.67;3.93;;;24.90;64.20;;;;;;4929975;29;20471;-48
2021/08/11 08:33:50;;;;;;;5.17;3.80;;;25.10;64.20;;;;;;4930496;29;20550;-48
2021/08/11 08:36:17;;;;;;;5.97;4.40;;;25.20;64.30;;;;;;4929973;29;20451;-48
2021/08/11 08:38:44;;;;;;;4.07;3.33;;;25.40;63.60;;;;;;4913954;29;20464;-48
2021/08/11 08:41:11;;;;;;;5.70;4.10;;;25.50;62.80;;;;;;4930658;29;21044;-48
2021/08/11 08:43:39;;;;;;;10.03;4.50;;;25.70;62.50;;;;;;4933627;29;20534;-47
2021/08/11 08:46:07;;;;;;;6.40;3.97;;;25.90;61.80;;;;;;4930790;29;20495;-47
2021/08/11 08:48:40;;;;;;;6.70;4.57;;;26.10;61.00;;;;;;4928868;29;20475;-47
2021/08/11 08:51:12;;;;;;;6.83;3.83;;;26.30;60.80;;;;;;4916249;29;20451;-48
2021/08/11 08:53:41;;;;;;;5.60;3.50;;;26.50;60.40;;;;;;4934882;29;20448;-48
2021/08/11 08:56:08;;;;;;;4.20;2.87;;;26.70;59.90;;;;;;4926390;29;20479;-48
2021/08/11 08:58:37;;;;;;;2.90;2.63;;;26.90;58.30;;;;;;4916979;29;21061;-47
2021/08/11 09:01:04;;;;;;;5.10;3.73;;;27.10;58.10;;;;;;4929759;29;21060;-47
2021/08/11 09:03:32;;;;;;;3.40;3.10;;;27.30;58.00;;;;;;4914213;29;20554;-47
2021/08/11 09:05:59;;;;;;;5.60;3.20;;;27.40;57.10;;;;;;4933878;29;20541;-48
2021/08/11 09:08:26;;;;;;;7.20;3.60;;;27.70;57.20;;;;;;4916261;29;20463;-48
2021/08/11 09:10:52;;;;;;;4.13;3.00;;;27.90;56.60;;;;;;4929953;29;20994;-48
2021/08/11 09:13:21;;;;;;;5.30;2.70;;;28.10;55.50;;;;;;4916377;29;20210;-48
2021/08/11 09:15:54;;;;;;;4.47;3.63;;;28.30;54.70;;;;;;4927451;29;20303;-47
2021/08/11 09:18:24;;;;;;;4.40;3.43;;;28.50;54.20;;;;;;4930012;29;20765;-48
2021/08/11 09:21:02;;;;;;;7.17;3.70;;;28.70;53.80;;;;;;4930753;29;20215;-48
2021/08/11 09:23:38;;;;;;;5.40;3.30;;;28.90;53.10;;;;;;4930635;29;20227;-48
2021/08/11 09:26:06;;;;;;;5.33;3.10;;;29.00;52.70;;;;;;4928574;29;20231;-48
2021/08/11 09:28:35;;;;;;;4.23;3.00;;;28.80;52.80;;;;;;4929826;29;20203;-48
2021/08/11 09:31:25;;;;;;;3.20;2.90;;;28.80;53.40;;;;;;4930109;29;20263;-48
2021/08/11 09:33:55;;;;;;;3.60;3.30;;;28.90;52.70;;;;;;4927511;29;20278;-48
2021/08/11 09:36:22;;;;;;;4.90;3.07;;;28.90;52.70;;;;;;4931661;29;20212;-48
2021/08/11 09:39:03;;;;;;;2.80;2.50;;;29.10;52.80;;;;;;4912485;29;20298;-48
2021/08/11 09:41:32;;;;;;;6.43;3.35;;;29.40;52.30;;;;;;4928516;29;20207;-49
2021/08/11 09:44:10;;;;;;;3.65;3.05;;;29.60;52.10;;;;;;4930777;29;20319;-48
2021/08/11 09:46:41;;;;;;;3.60;2.85;;;29.50;51.80;;;;;;4928123;29;20227;-48
2021/08/11 09:49:19;;;;;;;2.80;2.60;;;29.40;51.90;;;;;;4930692;29;20211;-48
2021/08/11 09:52:00;;;;;;;5.28;2.92;;;29.60;51.90;;;;;;4927604;29;20209;-48
2021/08/11 09:54:29;;;;;;;3.85;2.67;;;30.00;50.60;;;;;;4926049;29;20215;-47
2021/08/11 09:56:57;;;;;;;3.88;3.03;;;30.40;49.50;;;;;;4920168;29;20214;-47
2021/08/11 09:59:24;;;;;;;3.20;2.88;;;30.40;48.70;;;;;;4929654;29;20245;-48
2021/08/11 10:01:51;;;;;;;3.10;2.55;;;30.10;49.40;;;;;;4926941;29;20215;-48
2021/08/11 10:04:22;;;;;;;3.13;2.38;;;30.20;48.70;;;;;;4915460;29;20231;-48
2021/08/11 10:06:50;;;;;;;4.72;3.10;;;30.30;48.80;;;;;;4926087;29;20303;-48
2021/08/11 10:09:20;;;;;;;3.35;2.60;;;30.60;48.30;;;;;;4928324;29;20218;-48
2021/08/11 10:11:52;;;;;;;5.85;2.72;;;30.90;47.90;;;;;;4912968;29;20199;-48
2021/08/11 10:14:21;;;;;;;2.88;2.67;;;31.20;47.90;;;;;;4926300;29;20628;-48
2021/08/11 10:16:50;;;;;;;3.63;2.60;;;31.40;46.80;;;;;;4928816;29;20635;-48
2021/08/11 10:19:21;;;;;;;5.47;3.55;;;31.30;46.90;;;;;;4930127;29;20576;-47
2021/08/11 10:21:59;;;;;;;5.68;2.72;;;30.90;47.70;;;;;;4926588;29;20207;-48
2021/08/11 10:24:28;;;;;;;4.28;2.55;;;30.80;48.10;;;;;;4927569;29;20235;-48
2021/08/11 10:26:56;;;;;;;4.53;3.28;;;30.80;48.10;;;;;;4929417;29;20207;-49
2021/08/11 10:29:24;;;;;;;5.50;3.08;;;30.70;47.80;;;;;;4914037;29;20208;-48
2021/08/11 10:31:51;;;;;;;3.72;2.60;;;30.70;47.80;;;;;;4911265;29;20328;-48
2021/08/11 10:34:18;;;;;;;3.72;2.90;;;30.60;47.80;;;;;;4911410;29;20215;-48
2021/08/11 10:36:47;;;;;;;3.80;2.70;;;30.60;47.70;;;;;;4928469;29;20306;-48
2021/08/11 10:39:15;;;;;;;3.28;2.47;;;30.30;47.40;;;;;;4924809;29;20214;-48
2021/08/11 10:41:43;;;;;;;4.63;2.30;;;30.10;47.90;;;;;;4928750;29;20703;-48
2021/08/11 10:44:20;;;;;;;3.70;2.63;;;29.90;48.20;;;;;;4911893;29;20339;-48
2021/08/11 10:46:58;;;;;;;3.30;2.95;;;29.70;49.10;;;;;;4928656;29;20214;-48
2021/08/11 10:49:29;;;;;;;3.42;2.60;;;29.60;49.70;;;;;;4922707;29;20200;-48
2021/08/11 10:51:59;;;;;;;3.22;2.58;;;29.50;50.30;;;;;;4914988;29;20255;-48
2021/08/11 10:54:27;;;;;;;2.28;2.08;;;29.40;49.60;;;;;;4929402;29;20223;-48
2021/08/11 10:56:55;;;;;;;2.40;2.20;;;29.20;49.50;;;;;;4933315;29;20226;-48
2021/08/11 10:59:22;;;;;;;3.27;2.57;;;28.90;49.90;;;;;;4934875;29;20211;-48
2021/08/11 11:01:56;;;;;;;3.67;2.90;;;28.70;51.10;;;;;;4931023;29;20228;-48
2021/08/11 11:04:46;;;;;;;3.07;2.60;;;28.50;51.20;;;;;;4933133;29;20238;-48
2021/08/11 11:07:16;;;;;;;2.50;2.30;;;28.30;51.30;;;;;;4936179;29;20231;-48
2021/08/11 11:09:45;;;;;;;3.97;2.70;;;28.20;52.30;;;;;;4938180;29;20629;-48
2021/08/11 11:12:17;;;;;;;4.07;2.87;;;28.10;52.70;;;;;;4940822;29;20199;-48
2021/08/11 11:14:51;;;;;;;2.67;2.20;;;28.00;51.80;;;;;;4934815;29;20203;-48
2021/08/11 11:17:33;;;;;;;4.80;2.70;;;27.90;52.80;;;;;;4936567;29;20211;-48
2021/08/11 11:20:03;;;;;;;3.67;2.73;;;27.70;52.80;;;;;;4932022;29;20211;-48
2021/08/11 11:22:35;;;;;;;5.33;3.00;;;27.60;53.90;;;;;;4936837;29;20469;-48
2021/08/11 11:25:06;;;;;;;4.10;3.17;;;27.50;54.30;;;;;;4935855;29;20697;-48
2021/08/11 11:27:41;;;;;;;3.07;2.67;;;27.40;54.80;;;;;;4933504;29;20204;-48
2021/08/11 11:30:13;;;;;;;3.50;2.60;;;27.20;55.00;;;;;;4932957;29;20456;-48
2021/08/11 11:32:40;;;;;;;6.43;2.87;;;27.20;54.30;;;;;;4933674;29;20506;-48
2021/08/11 11:35:18;;;;;;;4.07;3.13;;;27.10;54.40;;;;;;4921095;29;20999;-48
2021/08/11 11:38:14;;;;;;;3.80;3.23;;;27.00;54.40;;;;;;4932742;29;20494;-48
2021/08/11 11:41:03;;;;;;;2.93;2.57;;;26.90;54.90;;;;;;4933000;29;20467;-48
2021/08/11 11:43:31;;;;;;;5.07;2.70;;;26.90;53.80;;;;;;4935418;29;20493;-48
2021/08/11 11:46:01;;;;;;;2.97;2.20;;;26.90;54.40;;;;;;4931228;29;20463;-48
2021/08/11 11:48:28;;;;;;;2.97;2.10;;;26.90;54.80;;;;;;4931804;29;20465;-48
2021/08/11 11:51:03;;;;;;;3.20;2.37;;;26.90;55.10;;;;;;4920094;29;21027;-48
2021/08/11 11:53:35;;;;;;;2.83;2.63;;;26.80;55.00;;;;;;4940024;29;20491;-48
2021/08/11 11:56:10;;;;;;;2.60;2.40;;;26.80;54.50;;;;;;4917727;29;20698;-48
2021/08/11 11:58:45;;;;;;;2.67;2.43;;;26.80;54.70;;;;;;4909871;29;21031;-48
2021/08/11 12:01:13;;;;;;;2.87;2.27;;;26.80;55.10;;;;;;4910967;29;20485;-48
2021/08/11 12:03:44;;;;;;;3.20;2.60;;;26.80;55.10;;;;;;4914758;29;20490;-48
2021/08/11 12:06:12;;;;;;;2.63;2.40;;;26.80;55.90;;;;;;4931021;29;20459;-48
2021/08/11 12:08:55;;;;;;;3.17;2.67;;;26.80;53.90;;;;;;4931809;29;20478;-48
2021/08/11 12:11:26;;;;;;;2.43;2.07;;;26.70;54.00;;;;;;4932948;29;20554;-48
2021/08/11 12:13:55;;;;;;;3.23;2.60;;;26.60;53.70;;;;;;4929946;29;20559;-48
2021/08/11 12:16:22;;;;;;;8.97;3.43;;;26.60;53.50;;;;;;4928078;29;20960;-48
2021/08/11 12:18:50;;;;;;;3.50;2.47;;;26.50;54.40;;;;;;4929107;29;20499;-48
2021/08/11 12:21:19;;;;;;;7.00;2.73;;;26.50;55.10;;;;;;4929401;29;20459;-47
2021/08/11 12:23:49;;;;;;;2.90;2.57;;;26.50;54.80;;;;;;4931559;29;21009;-47
2021/08/11 12:26:16;;;;;;;3.83;2.30;;;26.50;54.70;;;;;;4926973;29;20466;-48
2021/08/11 12:28:49;;;;;;;2.43;2.23;;;26.50;55.10;;;;;;4930253;29;20926;-48
2021/08/11 12:31:26;;;;;;;3.23;2.60;;;26.50;55.10;;;;;;4926233;29;20467;-48
2021/08/11 12:33:57;;;;;;;3.73;2.73;;;26.70;55.10;;;;;;4918461;29;20461;-47
2021/08/11 12:36:32;;;;;;;3.17;2.60;;;26.80;54.60;;;;;;4928438;29;20471;-48
2021/08/11 12:39:16;;;;;;;3.87;2.37;;;26.80;54.30;;;;;;4931144;29;20982;-49
2021/08/11 12:41:58;;;;;;;3.43;2.37;;;26.90;53.70;;;;;;4928444;29;20223;-48
2021/08/11 12:44:30;;;;;;;4.13;3.17;;;27.00;53.80;;;;;;4930599;29;20487;-48
2021/08/11 12:46:58;;;;;;;3.00;2.70;;;27.00;54.20;;;;;;4928416;29;20210;-48
2021/08/11 12:53:28;;;;;;;2.93;2.63;;;27.10;54.10;;;;;;4926163;29;20482;-47
2021/08/11 12:56:18;;;;;;;3.13;2.83;;;27.10;53.80;;;;;;4933482;29;20443;-47
2021/08/11 12:59:06;;;;;;;3.20;2.37;;;27.10;53.10;;;;;;4929473;29;20851;-47
2021/08/11 13:01:44;;;;;;;3.47;2.70;;;27.10;53.20;;;;;;4928981;29;20874;-47